Mason, OH

12:18 PM EST on February 10, 2016 (GMT -0500)
APRSWXNET | | Change Station
CLOSE
Current Station
Personal Weather Station
Location: Mason, OH
Elevation: 810 ft
Nearby Weather Stations

Elev 810 ft 39.36 °N, 84.29 °W | Updated 35 minutes ago

Snow
Snow
19 °F
Feels Like 10 °F
N
7
Wind Variable Wind from West
Gusts 15.0 mph

Today
High -- | Low -- °F
--% Chance of Precip.
Yesterday
High -- | Low -- °F
Precip. -- in
Pressure 30.08 in
Visibility 4.0 miles
Clouds Overcast 2400 ft
Windchill 10 °F
Dew Point 13 °F
Humidity 76%
Rainfall in
Snow Depth Not available.
7:35 AM 6:07 PM
Waxing Crescent, 6% visible
METAR KHAO 101653Z AUTO 27011G20KT 4SM -SN OVC024 M07/M13 A3005 RMK AO2 SLP185 P0000 T10721128
Pressure 30.08 in
Visibility 4.0 miles
Clouds Overcast 2400 ft
Windchill 10 °F
Dew Point 13 °F
Humidity 76%
Rainfall in
Snow Depth Not available.
7:35 AM 6:07 PM
Waxing Crescent, 6% visible
METAR KHAO 101653Z AUTO 27011G20KT 4SM -SN OVC024 M07/M13 A3005 RMK AO2 SLP185 P0000 T10721128

10-Day Weather Forecast

Almanac

Astronomy

Feb. 10, 2016 Rise Set
Actual Time
Civil Twilight
Nautical Twilight
Astronomical Twilight
Moon
Length of Visible Light
Length of Day
Tomorrow will be .
, % of the Moon is Illuminated

Today's Extremes

State Highs State Lows

Community

WunderPhotos

Upload Photos

1,891,893 photos uploaded!

WunderBlog® & News

Nearby

Air Quality

  Air Quality AQ Index Pollutant
Not available.

Snow Depth

Station Depth Elevation

Earthquake Activity

City Distance Mag. Time & Date
Minimum magnitude displayed is 2.5.

Coastal Water Temperatures

Place Temperature

Stations

Nearby Weather Stations

Station Location Temp. Windchill Dew Point Humidity Wind Precip. Elev Updated Type
                   

Watches & Warnings

There are currently no watches in effect.